Tiempo atmosférico en la estación meteorológica de Prat de Lluçanès, Barcelona (700 m.)



Fecha
DESCASC
Temp. máxima en grados centígrados (hora)
DESCASC
Temp. mínima en grados centígrados (hora)
DESCASC
Temp. media en grados centígrados
DESCASC
Racha de viento máxima en m/sg (hora)
DESCASC
Velocidad máxima media en intervalos de 10 minutos(hora)
DESCASC
Precipitaciones diarias en mm
DESCASC
Precipitaciones de 00:00 a 06:00 en mm
DESCASC
Precipitaciones de 06:00 a 12:00 en mm
DESCASC
Precipitaciones de 12:00 a 18:00 en mm
DESCASC
Precipitaciones de 18:00 a 24:00 en mm
DESCASC

Gráficas

Temp. máximas Temp. mínimas Temp. medias Precipitaciones Rachas de viento máximas Velocidades máximas media en intervalos de 10 minutos

Datos horarios

Fecha y hora oficial Temperatura (ºC) Velocidad del viento (km/h) Dirección del viento Racha (km/h) Dirección de racha Precipitación (mm) Presión (hPa) Tendencia (hPa) Humedad (%)
2021-03-01 23:00:00 6.9 8 Nordeste 15 Nordeste 0 -- -- 83
2021-03-01 22:00:00 6.6 3 Nordeste 12 Este 0 -- -- 89
2021-03-01 21:00:00 7.5 7 Este 14 Este 0 -- -- 88
2021-03-01 20:00:00 8.3 6 Nordeste 13 Nordeste 0 -- -- 85
2021-03-01 19:00:00 9.3 5 Nordeste 22 Este 0 -- -- 77
2021-03-01 18:00:00 10.5 8 Este 21 Este 0 -- -- 71
2021-03-01 17:00:00 11.6 7 Sudeste 24 Este 0 -- -- 64
2021-03-01 16:00:00 12.5 8 Este 20 Este 0 -- -- 64
2021-03-01 15:00:00 12.4 5 Sudeste 23 Este 0 -- -- 65
2021-03-01 14:00:00 11.8 7 Sudeste 20 Este 0 -- -- 66
2021-03-01 13:00:00 11.7 7 Sudeste 21 Este 0 -- -- 68
2021-03-01 12:00:00 11.1 6 Este 18 Nordeste 0 -- -- 68
2021-03-01 11:00:00 9.6 5 Este 15 Este 0 -- -- 73
2021-03-01 10:00:00 7.8 5 Nordeste 12 Nordeste 0 -- -- 79
2021-03-01 09:00:00 6.4 6 Nordeste 12 Nordeste 0 -- -- 82
2021-03-01 08:00:00 4.9 2 Norte 10 Norte 0 -- -- 89
2021-03-01 07:00:00 3.5 4 Norte 10 Norte 0 -- -- 93
2021-03-01 06:00:00 3.5 4 Norte 8 Nordeste 0 -- -- 93
2021-03-01 05:00:00 2 3 Norte 8 Norte 0 -- -- 95
2021-03-01 04:00:00 2.3 3 Norte 6 Noroeste 0 -- -- 93
2021-03-01 03:00:00 4.2 2 Nordeste 15 Nordeste 0 -- -- 84
2021-03-01 02:00:00 6 7 Nordeste 14 Nordeste 0 -- -- 84
2021-03-01 01:00:00 6.1 10 Nordeste 21 Norte 0 -- -- 87
2021-03-01 00:00:00 5.4 8 Nordeste 17 Nordeste 0 -- -- 92
2021-02-28 23:00:00 6 10 Nordeste 22 Nordeste 0 -- -- 91
2021-02-28 22:00:00 6.4 12 Este 22 Este 0 -- -- 89
2021-02-28 21:00:00 7.1 12 Este 22 Este 0 -- -- 86
2021-02-28 20:00:00 7.6 9 Este 19 Este 0 -- -- 83
2021-02-28 19:00:00 8.8 12 Este 23 Este 0 -- -- 78
2021-02-28 18:00:00 10.5 7 Este 21 Este 0 -- -- 69
2021-02-28 17:00:00 12.2 5 Este 15 Este 0 -- -- 61
2021-02-28 16:00:00 12.5 5 Este 17 Este 0 -- -- 59
2021-02-28 15:00:00 12.1 5 Este 17 Este 0 -- -- 63
2021-02-28 14:00:00 11.8 4 Sudeste 11 Este 0 -- -- 64
2021-02-28 13:00:00 10.1 4 Nordeste 15 Este 0 -- -- 73
2021-02-28 12:00:00 9.6 4 Nordeste 12 Nordeste 0 -- -- 76
2021-02-28 11:00:00 8.6 4 Este 12 Nordeste 0 -- -- 87
2021-02-28 10:00:00 6.9 2 Nordeste 8 Sur 0 -- -- 99
2021-02-28 09:00:00 6.8 4 Sur 8 Sur 0 -- -- 98
2021-02-28 08:00:00 6.2 3 Norte 8 Norte 0.2 -- -- 99
2021-02-28 07:00:00 6.5 4 Nordeste 10 Nordeste 3.6 -- -- 99
2021-02-28 06:00:00 6.5 2 Este 5 Este 0.2 -- -- 99
2021-02-28 05:00:00 6.1 0 Calma 4 Nordeste 0 -- -- 99
2021-02-28 04:00:00 6 3 Noroeste 4 Oeste 0 -- -- 99
2021-02-28 03:00:00 5.7 0 Calma 4 Noroeste 0 -- -- 100
2021-02-28 02:00:00 4.5 2 Noroeste 5 Noroeste 0 -- -- 98
2021-02-28 01:00:00 4.1 0 Calma 6 Norte 0 -- -- 94
2021-02-28 00:00:00 6.4 4 Noroeste 6 Oeste 0 -- -- 92
2021-02-27 23:00:00 7.5 0 Calma 4 Noroeste 0 -- -- 91
2021-02-27 22:00:00 7.9 0 Calma 5 Norte 0 -- -- 90
2021-02-27 21:00:00 7.8 2 Norte 12 Este 0 -- -- 90
2021-02-27 20:00:00 7.3 0 Calma 5 Este 0 -- -- 93
2021-02-27 19:00:00 7.8 0 Calma 6 Sudoeste 0 -- -- 87
2021-02-27 18:00:00 9.9 4 Sur 11 Sudoeste 0 -- -- 81
2021-02-27 17:00:00 11 5 Sur 14 Sur 0 -- -- 76
2021-02-27 16:00:00 10.6 4 Sur 12 Sudoeste 0 -- -- 79
2021-02-27 15:00:00 10.4 6 Sur 17 Sur 0 -- -- 82
2021-02-27 14:00:00 9.4 6 Sur 11 Sur 0 -- -- 87
2021-02-27 13:00:00 7.6 3 Sur 9 Este 0 -- -- 94
2021-02-27 12:00:00 6.5 3 Sur 10 Sudoeste 0 -- -- 99
2021-02-27 11:00:00 5.8 3 Sur 8 Sur 0 -- -- 100
2021-02-27 10:00:00 5.1 5 Sur 9 Sur 0 -- -- 97
2021-02-27 09:00:00 5.8 2 Sudoeste 5 Noroeste 0 -- -- 100
2021-02-27 08:00:00 1.5 2 Norte 7 Noroeste 0 -- -- 100
2021-02-27 07:00:00 1.6 3 Norte 7 Norte 0 -- -- 100
2021-02-27 06:00:00 1.4 5 Norte 6 Norte 0 -- -- 99
2021-02-27 05:00:00 2 3 Norte 6 Norte 0 -- -- 100
2021-02-27 04:00:00 1.9 5 Noroeste 7 Noroeste 0 -- -- 100
2021-02-27 03:00:00 2.8 4 Noroeste 7 Noroeste 0 -- -- 100
2021-02-27 02:00:00 3.1 3 Noroeste 8 Noroeste 0 -- -- 99
2021-02-27 01:00:00 3 5 Noroeste 6 Noroeste 0 -- -- 99
2021-02-27 00:00:00 3.4 0 Calma 7 Norte 0 -- -- 99
2021-02-26 23:00:00 3.6 4 Norte 6 Noroeste 0 -- -- 98
2021-02-26 22:00:00 4.2 5 Noroeste 7 Norte 0 -- -- 98
2021-02-26 21:00:00 4.8 5 Noroeste 7 Noroeste 0 -- -- 96
2021-02-26 20:00:00 5.8 4 Noroeste 6 Noroeste 0 -- -- 94
2021-02-26 19:00:00 8.2 2 Norte 5 Noroeste 0 -- -- 85
2021-02-26 18:00:00 12.6 0 Calma 5 Sur 0 -- -- 68
2021-02-26 17:00:00 13.8 2 Sur 9 Sudoeste 0 -- -- 65
2021-02-26 16:00:00 13.6 3 Sur 8 Sur 0 -- -- 65
2021-02-26 15:00:00 12.1 2 Sudeste 8 Sudoeste 0 -- -- 77
2021-02-26 14:00:00 10.4 4 Sur 9 Sur 0 -- -- 85
2021-02-26 13:00:00 8.2 4 Sudoeste 10 Sur 0 -- -- 98
2021-02-26 12:00:00 7.2 3 Sur 8 Sur 0 -- -- 100
2021-02-26 11:00:00 5.7 0 Calma 6 Nordeste 0 -- -- 100
2021-02-26 10:00:00 4.9 3 Este 8 Este 0 -- -- 100
2021-02-26 09:00:00 4.4 0 Calma 4 Este 0.2 -- -- 100
2021-02-26 08:00:00 4.6 2 Sudeste 6 Este 0 -- -- 100
2021-02-26 07:00:00 5 2 Sudeste 6 Este 0 -- -- 100
2021-02-26 06:00:00 5.3 2 Este 5 Este 0 -- -- 100
2021-02-26 05:00:00 5.5 0 Calma 3 Noroeste 0 -- -- 100
2021-02-26 04:00:00 3.5 2 Noroeste 6 Norte 0 -- -- 100
2021-02-26 03:00:00 2.8 4 Noroeste 5 Noroeste 0 -- -- 99
2021-02-26 02:00:00 3.5 2 Noroeste 7 Noroeste 0 -- -- 99
2021-02-26 01:00:00 3.6 4 Noroeste 6 Noroeste 0 -- -- 98
2021-02-26 00:00:00 4.5 3 Norte 5 Noroeste 0 -- -- 97
2021-02-25 23:00:00 5.3 5 Noroeste 6 Noroeste 0 -- -- 97
2021-02-25 22:00:00 5.8 3 Noroeste 8 Noroeste 0 -- -- 93
2021-02-25 21:00:00 6 5 Noroeste 6 Noroeste 0 -- -- 92
2021-02-25 20:00:00 7.5 5 Noroeste 6 Noroeste 0 -- -- 87
2021-02-25 19:00:00 9.7 5 Noroeste 5 Noroeste 0 -- -- 81
2021-02-25 18:00:00 13.6 0 Calma 6 Sur 0 -- -- 65
2021-02-25 17:00:00 15.1 4 Sur 9 Sur 0 -- -- 60
2021-02-25 16:00:00 15.2 4 Sur 13 Oeste 0 -- -- 57
2021-02-25 15:00:00 14.5 6 Sudoeste 15 Sudoeste 0 -- -- 59
2021-02-25 14:00:00 13.4 7 Sudoeste 12 Sudoeste 0 -- -- 64
2021-02-25 13:00:00 11.6 6 Sudoeste 13 Oeste 0 -- -- 68
2021-02-25 12:00:00 10.1 8 Oeste 13 Sudoeste 0 -- -- 75
2021-02-25 11:00:00 8.8 8 Oeste 13 Oeste 0 -- -- 79
2021-02-25 10:00:00 7.9 5 Oeste 10 Oeste 0 -- -- 83
2021-02-25 09:00:00 6.5 4 Oeste 10 Oeste 0 -- -- 89
2021-02-25 08:00:00 6 5 Oeste 9 Oeste 0 -- -- 91
2021-02-25 07:00:00 5.7 4 Oeste 9 Noroeste 0 -- -- 94
2021-02-25 06:00:00 4.7 3 Noroeste 11 Sudoeste 0 -- -- 97
2021-02-25 05:00:00 5.2 4 Oeste 7 Oeste 0 -- -- 99
2021-02-25 04:00:00 5.6 0 Calma 12 Sudoeste 0 -- -- 98
2021-02-25 03:00:00 5.8 0 Calma 5 Sudoeste 0 -- -- 98
2021-02-25 02:00:00 6.2 3 Sur 9 Sudoeste 0 -- -- 99
2021-02-25 01:00:00 4.1 4 Noroeste 7 Noroeste 0 -- -- 96
2021-02-25 00:00:00 5.7 2 Oeste 11 Oeste 0 -- -- 94
2021-02-24 23:00:00 6 5 Oeste 9 Oeste 0 -- -- 94
2021-02-24 22:00:00 6 2 Oeste 6 Oeste 0 -- -- 92
2021-02-24 21:00:00 6 2 Noroeste 5 Norte 0 -- -- 89
2021-02-24 20:00:00 8.5 3 Sudoeste 6 Sur 0 -- -- 79
2021-02-24 19:00:00 10.7 3 Sudoeste 6 Sur 0 -- -- 77
2021-02-24 18:00:00 14 4 Sudoeste 14 Sudoeste 0 -- -- 69
2021-02-24 17:00:00 15.1 5 Sudoeste 13 Oeste 0 -- -- 63
2021-02-24 16:00:00 14.7 6 Oeste 14 Oeste 0 -- -- 71
2021-02-24 15:00:00 13.5 6 Oeste 13 Oeste 0 -- -- 77
2021-02-24 14:00:00 11.8 7 Noroeste 13 Noroeste 0 -- -- 85
2021-02-24 13:00:00 10.2 5 Oeste 12 Noroeste 0 -- -- 95
2021-02-24 12:00:00 7.6 3 Sudoeste 10 Sur 0 -- -- 100
2021-02-24 11:00:00 7 2 Sudeste 4 Este 0 -- -- 100
2021-02-24 10:00:00 6.6 0 Calma 4 Sudoeste 0.2 -- -- 100
2021-02-24 09:00:00 5.2 0 Calma 3 Sudoeste 0 -- -- 100
2021-02-24 08:00:00 4 0 Calma 4 Noroeste 0 -- -- 100
2021-02-24 07:00:00 3.6 0 Calma 2 Noroeste 0 -- -- 100
2021-02-24 06:00:00 4.1 0 Calma 5 Noroeste 0 -- -- 100
2021-02-24 05:00:00 4.7 0 Calma 5 Noroeste 0 -- -- 100
2021-02-24 04:00:00 5.9 0 Calma 5 Norte 0 -- -- 100
2021-02-24 03:00:00 6.7 3 Norte 5 Noroeste 0 -- -- 100
2021-02-24 02:00:00 8.3 0 Calma 3 Oeste 0 -- -- 100
2021-02-24 01:00:00 8.4 0 Calma 7 Noroeste 0 -- -- 100
2021-02-24 00:00:00 7.8 5 Noroeste 8 Noroeste 0 -- -- 100
2021-02-23 23:00:00 7.7 0 Calma 9 Noroeste 0 -- -- 97
2021-02-23 22:00:00 7.9 5 Noroeste 10 Noroeste 0 -- -- 96
2021-02-23 21:00:00 8 0 Calma 4 Noroeste 0 -- -- 96
2021-02-23 20:00:00 8.5 2 Norte 4 Noroeste 0 -- -- 92
2021-02-23 19:00:00 10.4 3 Norte 4 Noroeste 0 -- -- 87
2021-02-23 18:00:00 13.9 0 Calma 5 Oeste 0 -- -- 74
2021-02-23 17:00:00 14.6 5 Noroeste 10 Noroeste 0 -- -- 70
2021-02-23 16:00:00 14.8 5 Oeste 10 Sur 0 -- -- 69
2021-02-23 15:00:00 14.2 4 Sudoeste 8 Oeste 0 -- -- 72
2021-02-23 14:00:00 13.4 3 Sur 9 Noroeste 0 -- -- 76
2021-02-23 13:00:00 13.6 4 Noroeste 10 Sur 0 -- -- 75
2021-02-23 12:00:00 13.7 2 Sudoeste 10 Sudoeste 0 -- -- 74
2021-02-23 11:00:00 12.3 2 Sur 7 Nordeste 0 -- -- 80
2021-02-23 10:00:00 11.2 3 Nordeste 10 Nordeste 0 -- -- 86
2021-02-23 09:00:00 10.3 5 Nordeste 14 Nordeste 0 -- -- 89
2021-02-23 08:00:00 9.8 8 Nordeste 20 Nordeste 0 -- -- 91
2021-02-23 07:00:00 9.3 5 Nordeste 12 Norte 0 -- -- 93
2021-02-23 06:00:00 8.9 2 Norte 9 Este 0 -- -- 95
2021-02-23 05:00:00 9.1 5 Nordeste 11 Este 0 -- -- 94
2021-02-23 04:00:00 9.2 4 Este 10 Nordeste 0 -- -- 93
2021-02-23 03:00:00 9.2 2 Nordeste 9 Nordeste 0 -- -- 93
2021-02-23 02:00:00 9.3 3 Nordeste 18 Este 0 -- -- 92
2021-02-23 01:00:00 9.4 8 Nordeste 15 Nordeste 0 -- -- 91
2021-02-23 00:00:00 9.4 7 Nordeste 13 Nordeste 0 -- -- 92
2021-02-22 23:00:00 9.3 7 Nordeste 16 Este 0 -- -- 92
2021-02-22 22:00:00 9.1 4 Nordeste 17 Este 0.6 -- -- 98
2021-02-22 21:00:00 9.1 6 Este 14 Este 2.6 -- -- 98
2021-02-22 20:00:00 9 0 Calma 6 Norte 1.4 -- -- 98
2021-02-22 19:00:00 9.3 0 Calma 4 Oeste 0 -- -- 96
2021-02-22 18:00:00 9.5 3 Oeste 9 Sudoeste 0 -- -- 94
2021-02-22 17:00:00 9.9 3 Sur 8 Sudoeste 0.2 -- -- 94
2021-02-22 16:00:00 10.3 2 Sur 13 Este 0 -- -- 96
2021-02-22 15:00:00 10.3 6 Nordeste 15 Este 0.8 -- -- 96
2021-02-22 14:00:00 9.7 4 Noroeste 8 Nordeste 0.8 -- -- 96
2021-02-22 13:00:00 9.6 0 Calma 7 Noroeste 0.6 -- -- 94
2021-02-22 12:00:00 9.3 3 Sudoeste 6 Sudoeste 2.8 -- -- 95
2021-02-22 11:00:00 10.1 0 Calma 7 Este 1.4 -- -- 95
2021-02-22 10:00:00 10.1 4 Este 13 Nordeste 1 -- -- 95
2021-02-22 09:00:00 10.3 8 Este 21 Este 0.4 -- -- 93
2021-02-22 08:00:00 10.5 10 Este 25 Este 0 -- -- 92
2021-02-22 07:00:00 10.6 9 Nordeste 23 Este 0 -- -- 90
2021-02-22 06:00:00 11 12 Este 30 Este 0 -- -- 86
2021-02-22 05:00:00 10.9 12 Nordeste 30 Nordeste 0 -- -- 87
2021-02-22 04:00:00 11 17 Nordeste 37 Nordeste 0 -- -- 85
2021-02-22 03:00:00 10.9 18 Nordeste 36 Este 0 -- -- 84
2021-02-22 02:00:00 10.8 12 Nordeste 35 Este 0 -- -- 84
2021-02-22 01:00:00 10.6 16 Nordeste 35 Nordeste 0 -- -- 83
2021-02-22 00:00:00 10.3 15 Nordeste 34 Nordeste 0 -- -- 85
2021-02-21 23:00:00 10.1 9 Nordeste 39 Este 0 -- -- 84
2021-02-21 22:00:00 9.9 18 Nordeste 35 Este 0 -- -- 84
2021-02-21 21:00:00 9.7 19 Nordeste 37 Nordeste 0 -- -- 84
2021-02-21 20:00:00 9.7 14 Nordeste 32 Este 0 -- -- 80
2021-02-21 19:00:00 9.6 15 Nordeste 36 Nordeste 0 -- -- 80
2021-02-21 18:00:00 10.2 16 Nordeste 35 Nordeste 0 -- -- 76
2021-02-21 17:00:00 11.1 17 Nordeste 35 Este 0 -- -- 70
2021-02-21 16:00:00 11.3 18 Nordeste 42 Este 0 -- -- 70
2021-02-21 15:00:00 11.6 22 Nordeste 43 Este 0 -- -- 67
2021-02-21 14:00:00 11.2 16 Nordeste 38 Nordeste 0 -- -- 69
2021-02-21 13:00:00 11.5 20 Este 40 Este 0 -- -- 67
2021-02-21 12:00:00 11.4 17 Este 33 Nordeste 0 -- -- 66
2021-02-21 11:00:00 11 19 Este 31 Este 0 -- -- 65
2021-02-21 10:00:00 10 12 Nordeste 26 Este 0 -- -- 65
2021-02-21 09:00:00 7.5 10 Nordeste 19 Nordeste 0 -- -- 75
2021-02-21 08:00:00 6.8 10 Nordeste 18 Nordeste 0 -- -- 69
2021-02-21 07:00:00 7.4 8 Nordeste 13 Nordeste 0 -- -- 53
2021-02-21 06:00:00 7 5 Nordeste 12 Norte 0 -- -- 56
2021-02-21 05:00:00 3.3 2 Norte 7 Noroeste 0 -- -- 75
2021-02-21 04:00:00 2.7 5 Noroeste 7 Norte 0 -- -- 79
2021-02-21 03:00:00 2.4 4 Noroeste 6 Noroeste 0 -- -- 84
2021-02-21 02:00:00 2 5 Noroeste 6 Noroeste 0 -- -- 90
2021-02-21 01:00:00 2.4 5 Noroeste 6 Noroeste 0 -- -- 93
2021-02-21 00:00:00 3.3 4 Noroeste 6 Noroeste 0 -- -- 98
2021-02-20 23:00:00 3.3 4 Noroeste 5 Noroeste 0 -- -- 96
2021-02-20 22:00:00 4.1 4 Noroeste 5 Noroeste 0 -- -- 96
2021-02-20 21:00:00 5.1 3 Norte 6 Noroeste 0 -- -- 94
2021-02-20 20:00:00 6.2 0 Calma 3 Noroeste 0 -- -- 86
2021-02-20 19:00:00 9 0 Calma 8 Sudoeste 0 -- -- 78
2021-02-20 18:00:00 12.2 4 Oeste 7 Sudoeste 0 -- -- 65
2021-02-20 17:00:00 14.4 3 Sur 18 Sudoeste 0 -- -- 53
2021-02-20 16:00:00 16.1 6 Sur 18 Sudoeste 0 -- -- 43
2021-02-20 15:00:00 16 9 Sudoeste 18 Sur 0 -- -- 47
2021-02-20 14:00:00 15.8 5 Sur 14 Sur 0 -- -- 51
2021-02-20 13:00:00 13.6 4 Sur 10 Sur 0 -- -- 59
2021-02-20 12:00:00 10.9 3 Sur 8 Sudoeste 0 -- -- 67
2021-02-20 11:00:00 9.4 2 Sudeste 6 Sudoeste 0 -- -- 71
2021-02-20 10:00:00 9.2 2 Sudeste 5 Este 0 -- -- 73
2021-02-20 09:00:00 4.3 0 Calma 6 Noroeste 0 -- -- 92
2021-02-20 08:00:00 0.9 4 Norte 5 Noroeste 0 -- -- 95
2021-02-20 07:00:00 0.9 2 Norte 5 Noroeste 0 -- -- 94
2021-02-20 06:00:00 1.3 3 Noroeste 5 Noroeste 0 -- -- 93
2021-02-20 05:00:00 1.8 3 Norte 5 Norte 0 -- -- 92
2021-02-20 04:00:00 1.9 3 Norte 5 Noroeste 0 -- -- 92
2021-02-20 03:00:00 2 3 Norte 5 Norte 0 -- -- 94
2021-02-20 02:00:00 2 5 Norte 5 Norte 0 -- -- 94
2021-02-20 01:00:00 2.5 3 Norte 5 Norte 0 -- -- 93
2021-02-20 00:00:00 3.4 3 Norte 5 Norte 0 -- -- 90
2021-02-19 23:00:00 4.3 0 Calma 3 Norte 0 -- -- 90
2021-02-19 22:00:00 5 0 Calma 8 Sur 0 -- -- 88
2021-02-19 21:00:00 8.7 3 Oeste 6 Oeste 0 -- -- 77
2021-02-19 20:00:00 9.7 2 Sudoeste 10 Sur 0 -- -- 78
2021-02-19 19:00:00 11.6 4 Sur 14 Sudoeste 0 -- -- 68
2021-02-19 18:00:00 14.5 11 Sudoeste 25 Sudoeste 0 -- -- 47
2021-02-19 17:00:00 15.8 16 Sudoeste 31 Sudoeste 0 -- -- 45
2021-02-19 16:00:00 16.2 17 Sudoeste 29 Oeste 0 -- -- 48
2021-02-19 15:00:00 16 13 Sur 27 Sur 0 -- -- 51
2021-02-19 14:00:00 14.9 10 Sur 27 Sur 0 -- -- 56
2021-02-19 13:00:00 13 6 Sur 15 Sur 0 -- -- 71
2021-02-19 12:00:00 10.6 3 Sur 10 Sur 0 -- -- 82
2021-02-19 11:00:00 9.5 3 Sur 10 Sudoeste 0 -- -- 88
2021-02-19 10:00:00 8.1 2 Sur 8 Sur 0 -- -- 100
2021-02-19 09:00:00 4.1 0 Calma 4 Noroeste 0 -- -- 100
2021-02-19 08:00:00 1.6 4 Noroeste 5 Noroeste 0 -- -- 100
2021-02-19 07:00:00 1.4 4 Noroeste 5 Noroeste 0 -- -- 100
2021-02-19 06:00:00 1.8 2 Noroeste 5 Noroeste 0 -- -- 100
2021-02-19 05:00:00 2.3 3 Norte 5 Noroeste 0 -- -- 100
2021-02-19 04:00:00 2.5 3 Norte 5 Noroeste 0 -- -- 100
2021-02-19 03:00:00 2.9 4 Noroeste 6 Norte 0 -- -- 99
2021-02-19 02:00:00 3 3 Noroeste 5 Noroeste 0 -- -- 99
2021-02-19 01:00:00 3.7 4 Noroeste 5 Noroeste 0 -- -- 99
2021-02-19 00:00:00 4.4 4 Noroeste 6 Noroeste 0 -- -- 97
2021-02-18 23:00:00 5.8 3 Noroeste 8 Oeste 0 -- -- 96
2021-02-18 22:00:00 5.7 3 Noroeste 7 Noroeste 0 -- -- 95
2021-02-18 21:00:00 7 0 Calma 5 Noroeste 0 -- -- 91
2021-02-18 20:00:00 8.5 3 Noroeste 6 Oeste 0 -- -- 87
2021-02-18 19:00:00 10.3 4 Noroeste 9 Noroeste 0 -- -- 78
2021-02-18 18:00:00 12.3 3 Sudoeste 15 Sur 0 -- -- 71
2021-02-18 17:00:00 14.9 4 Sur 17 Sudoeste 0 -- -- 62
2021-02-18 16:00:00 16.3 7 Sur 15 Sudoeste 0 -- -- 56
2021-02-18 15:00:00 16.9 4 Sur 9 Sur 0 -- -- 55
2021-02-18 14:00:00 15.5 2 Sur 13 Sur 0 -- -- 56
2021-02-18 13:00:00 13 5 Sur 14 Sur 0 -- -- 69
2021-02-18 12:00:00 12.3 4 Sur 10 Sur 0 -- -- 78
2021-02-18 11:00:00 11.1 3 Sur 6 Sudoeste 0 -- -- 78
2021-02-18 10:00:00 9.4 0 Calma 3 Sur 0 -- -- 98
2021-02-18 09:00:00 5.7 0 Calma 5 Norte 0 -- -- 100
2021-02-18 08:00:00 2.7 2 Norte 5 Norte 0 -- -- 100
2021-02-18 07:00:00 2.6 4 Noroeste 5 Noroeste 0 -- -- 100
2021-02-18 06:00:00 2.8 4 Norte 5 Noroeste 0 -- -- 100
2021-02-18 05:00:00 3.2 4 Norte 5 Norte 0 -- -- 100
2021-02-18 04:00:00 3.5 3 Noroeste 6 Noroeste 0 -- -- 100
2021-02-18 03:00:00 3.3 2 Norte 4 Noroeste 0 -- -- 99
2021-02-18 02:00:00 3.9 4 Norte 5 Noroeste 0 -- -- 99
2021-02-18 01:00:00 4.4 3 Noroeste 5 Noroeste 0 -- -- 97
2021-02-18 00:00:00 5.7 3 Noroeste 6 Norte 0 -- -- 94
2021-02-17 23:00:00 8.1 2 Norte 12 Oeste 0 -- -- 88
2021-02-17 22:00:00 9.5 6 Oeste 10 Oeste 0 -- -- 84
2021-02-17 21:00:00 9.5 3 Sur 8 Sudoeste 0 -- -- 89
2021-02-17 20:00:00 10.2 0 Calma 10 Sur 0 -- -- 84
2021-02-17 19:00:00 11.5 7 Sudoeste 13 Sudoeste 0 -- -- 78
2021-02-17 18:00:00 14 7 Sur 22 Sudoeste 0 -- -- 68
2021-02-17 17:00:00 15.2 8 Sudoeste 22 Sudoeste 0 -- -- 63
2021-02-17 16:00:00 15.3 11 Sudoeste 24 Sudoeste 0 -- -- 63
2021-02-17 15:00:00 14.7 12 Sudoeste 22 Sudoeste 0 -- -- 63
2021-02-17 14:00:00 13.7 12 Sudoeste 22 Sudoeste 0 -- -- 67
2021-02-17 13:00:00 12.6 13 Sudoeste 22 Sudoeste 0 -- -- 70
2021-02-17 12:00:00 11.3 3 Sur 9 Sudoeste 0 -- -- 75
2021-02-17 11:00:00 9.8 5 Sudoeste 9 Sur 0 -- -- 84
2021-02-17 10:00:00 8.5 2 Noroeste 5 Noroeste 0 -- -- 99
2021-02-17 09:00:00 5.6 0 Calma 5 Norte 0 -- -- 100
2021-02-17 08:00:00 3.5 0 Calma 4 Norte 0 -- -- 100
2021-02-17 07:00:00 3.6 0 Calma -- -- 0 -- -- 100
2021-02-17 06:00:00 3.5 0 Calma -- -- 0 -- -- 100
2021-02-17 05:00:00 3.7 0 Calma -- -- 0 -- -- 100
2021-02-17 04:00:00 3.8 0 Calma -- -- 0 -- -- 100
2021-02-17 03:00:00 4.3 0 Calma 4 Norte 0 -- -- 100
2021-02-17 02:00:00 4.7 3 Noroeste 3 Noroeste 0 -- -- 99
2021-02-17 01:00:00 5.4 0 Calma 3 Noroeste 0 -- -- 100
2021-02-17 00:00:00 4.7 3 Noroeste 5 Norte 0 -- -- 100
2021-02-16 23:00:00 4 4 Norte 5 Noroeste 0 -- -- 98
2021-02-16 22:00:00 4.9 4 Noroeste 5 Norte 0 -- -- 97
2021-02-16 21:00:00 5.6 0 Calma 5 Noroeste 0 -- -- 96
2021-02-16 20:00:00 7.1 2 Norte 8 Sudoeste 0 -- -- 89
2021-02-16 19:00:00 9.7 4 Sudoeste 11 Sur 0 -- -- 80
2021-02-16 18:00:00 11.9 5 Sudoeste 17 Sudoeste 0 -- -- 74
2021-02-16 17:00:00 13.6 9 Sudoeste 20 Sudoeste 0 -- -- 67
2021-02-16 16:00:00 13.5 9 Sudoeste 22 Sur 0 -- -- 69
2021-02-16 15:00:00 12.5 9 Sudoeste 22 Oeste 0 -- -- 70
2021-02-16 14:00:00 11.3 9 Sudoeste 21 Sur 0 -- -- 77
2021-02-16 13:00:00 9.1 11 Sudoeste 22 Sudoeste 0 -- -- 84
2021-02-16 12:00:00 7.4 9 Sudoeste 19 Sudoeste 0 -- -- 88
2021-02-16 11:00:00 6.5 11 Sudoeste 19 Oeste 0 -- -- 90
2021-02-16 10:00:00 6.2 9 Sudoeste 19 Sudoeste 0 -- -- 91
2021-02-16 09:00:00 5.8 12 Sudoeste 23 Sudoeste 0 -- -- 91
2021-02-16 08:00:00 5.8 10 Sudoeste 24 Sudoeste 0 -- -- 92
2021-02-16 07:00:00 5.8 12 Sudoeste 22 Sudoeste 0 -- -- 94
2021-02-16 06:00:00 5.6 5 Sudoeste 15 Sudoeste 0 -- -- 100
2021-02-16 05:00:00 5.5 9 Sudoeste 15 Sudoeste 0 -- -- 100
2021-02-16 04:00:00 5.6 7 Sudoeste 12 Sudoeste 0 -- -- 100
2021-02-16 03:00:00 5.5 2 Sudoeste 10 Oeste 0 -- -- 100
2021-02-16 02:00:00 5.4 5 Oeste 10 Sudoeste 0 -- -- 100
2021-02-16 01:00:00 5.4 4 Sudoeste 9 Sudoeste 0 -- -- 100
2021-02-16 00:00:00 5.3 4 Sudoeste 11 Sudoeste 0 -- -- 100
2021-02-15 23:00:00 5.3 6 Sur 13 Sur 0 -- -- 100
2021-02-15 22:00:00 5.3 6 Sur 15 Sur 0 -- -- 100
2021-02-15 21:00:00 5.4 6 Sur 13 Sudoeste 0 -- -- 100
2021-02-15 20:00:00 5.3 6 Sur 13 Sudoeste 0 -- -- 100
2021-02-15 19:00:00 5.3 4 Sudoeste 13 Sudoeste 0.2 -- -- 100
2021-02-15 18:00:00 5.2 3 Sudoeste 9 Sur 0 -- -- 100
2021-02-15 17:00:00 5 3 Sur 9 Sudoeste 0 -- -- 100
2021-02-15 16:00:00 4.9 6 Sudoeste 12 Sur 0 -- -- 100
2021-02-15 15:00:00 4.8 6 Sudoeste 14 Sudoeste 0 -- -- 100
2021-02-15 14:00:00 4.6 5 Sudoeste 11 Sudoeste 0 -- -- 100
2021-02-15 13:00:00 4.3 4 Sudoeste 11 Sur 0 -- -- 100
2021-02-15 12:00:00 4.1 3 Sur 9 Sur 0 -- -- 100
2021-02-15 11:00:00 3.7 4 Sur 9 Sudoeste 0.2 -- -- 100
2021-02-15 10:00:00 3.4 4 Sudoeste 8 Sur 0.2 -- -- 100
2021-02-15 09:00:00 3.1 3 Sur 6 Sudoeste 0.2 -- -- 100
2021-02-15 08:00:00 2.8 3 Sur 5 Sur 0 -- -- 100
2021-02-15 07:00:00 2.7 2 Sur 6 Sudoeste 0 -- -- 100
2021-02-15 06:00:00 2.7 3 Sudoeste 8 Sur 0 -- -- 100
2021-02-15 05:00:00 2.7 2 Sur 9 Sudoeste 0 -- -- 100
2021-02-15 04:00:00 2.7 5 Sudoeste 10 Sur 0.2 -- -- 100
2021-02-15 03:00:00 2.7 5 Sudoeste 12 Sudoeste 0.2 -- -- 100
2021-02-15 02:00:00 2.6 2 Sur 9 Sur 0.4 -- -- 100
2021-02-15 01:00:00 2.5 4 Sudoeste 9 Sudoeste 0.4 -- -- 100
2021-02-15 00:00:00 2.6 4 Sur 10 Sudoeste 0.2 -- -- 100
2021-02-14 23:00:00 2.6 5 Sudoeste 10 Sudoeste 0 -- -- 100
2021-02-14 22:00:00 2.5 3 Sur 10 Sur 0 -- -- 100
2021-02-14 21:00:00 2.6 5 Sudoeste 9 Sur 0.2 -- -- 100
2021-02-14 20:00:00 2.8 3 Sur 6 Sur 0.2 -- -- 100
2021-02-14 19:00:00 3.1 2 Sur 9 Sur 0.6 -- -- 100
2021-02-14 18:00:00 3.5 4 Sur 9 Sur 0.6 -- -- 100
2021-02-14 17:00:00 3.9 0 Calma 11 Este 0.4 -- -- 100
2021-02-14 16:00:00 4.1 4 Este 13 Este 0.4 -- -- 99
2021-02-14 15:00:00 4.4 6 Este 12 Este 0.4 -- -- 99
2021-02-14 14:00:00 4.9 3 Sudeste 14 Este 0 -- -- 98
2021-02-14 13:00:00 4.9 5 Este 15 Este 0.2 -- -- 98
2021-02-14 12:00:00 5 3 Este 15 Este 0.2 -- -- 98
2021-02-14 11:00:00 5 5 Este 15 Este 0 -- -- 98
2021-02-14 10:00:00 4.7 7 Este 14 Este 0.2 -- -- 98
2021-02-14 09:00:00 4.6 5 Nordeste 17 Nordeste 0 -- -- 97
2021-02-14 08:00:00 4.5 9 Este 20 Este 0.2 -- -- 99
2021-02-14 07:00:00 4.8 10 Este 21 Este 4.6 -- -- 99
2021-02-14 06:00:00 7.1 2 Sur 8 Sur 4.8 -- -- 100
2021-02-14 05:00:00 7.5 0 Calma 3 Sur 2 -- -- 100
2021-02-14 04:00:00 7.7 2 Sur 6 Sur 0 -- -- 99
2021-02-14 03:00:00 7.7 2 Sudoeste 5 Sudoeste 0 -- -- 98
2021-02-14 02:00:00 7.7 0 Calma 3 Noroeste 0 -- -- 97
2021-02-14 01:00:00 7.6 0 Calma 5 Oeste 0 -- -- 97
2021-02-14 00:00:00 7.5 3 Oeste 6 Noroeste 0 -- -- 97
2021-02-13 23:00:00 6.6 2 Noroeste 4 Noroeste 0 -- -- 97
2021-02-13 22:00:00 7.2 4 Sudoeste 5 Sudoeste 0 -- -- 95
2021-02-13 21:00:00 6.4 0 Calma 4 Norte 0 -- -- 95
2021-02-13 20:00:00 6.5 4 Noroeste 5 Noroeste 0 -- -- 91
2021-02-13 19:00:00 8.7 0 Calma 10 Oeste 0 -- -- 84
2021-02-13 18:00:00 10 5 Oeste 13 Sudoeste 0 -- -- 81
2021-02-13 17:00:00 11.8 4 Sudoeste 15 Sur 0 -- -- 69
2021-02-13 16:00:00 12.5 3 Sur 11 Sur 0 -- -- 76
2021-02-13 15:00:00 11 2 Sudeste 7 Este 0 -- -- 81
2021-02-13 14:00:00 10 3 Este 10 Oeste 0 -- -- 85
2021-02-13 13:00:00 8.4 3 Oeste 8 Noroeste 0 -- -- 89
2021-02-13 08:00:00 -- -- -- -- -- -- -- -- --
2021-02-13 07:00:00 -- -- -- -- -- -- -- -- --
2021-02-13 06:00:00 -- -- -- -- -- -- -- -- --
2021-02-13 05:00:00 5.3 0 Calma 6 Sur 0 -- -- 100
2021-02-13 04:00:00 6.3 0 Calma 7 Sur 0 -- -- 100
2021-02-13 03:00:00 7.2 0 Calma 13 Nordeste 0 -- -- 100
2021-02-13 02:00:00 7.3 3 Este 9 Norte 0 -- -- 100
2021-02-13 01:00:00 7.8 2 Sur 8 Sur 0 -- -- 100
2021-02-13 00:00:00 7.9 0 Calma 5 Sudoeste 0 -- -- 100
2021-02-12 23:00:00 7.9 0 Calma 5 Sudoeste 0 -- -- 100
2021-02-12 22:00:00 7.8 0 Calma 5 Sur 0 -- -- 100
2021-02-12 21:00:00 7.7 0 Calma 13 Oeste 0 -- -- 99
2021-02-12 20:00:00 8.2 5 Oeste 14 Oeste 0 -- -- 98
2021-02-12 19:00:00 8.8 5 Oeste 14 Este 1.6 -- -- 96
2021-02-12 18:00:00 9.8 2 Este 17 Sur 1.2 -- -- 88
2021-02-12 17:00:00 10.9 9 Sur 28 Sudoeste 0 -- -- 85
2021-02-12 16:00:00 12 12 Sudoeste 23 Sudoeste 0 -- -- 83
2021-02-12 15:00:00 12.3 13 Sudoeste 24 Sudoeste 0 -- -- 82
2021-02-12 14:00:00 13.5 15 Sudoeste 26 Sudoeste 0 -- -- 74
2021-02-12 13:00:00 12.6 7 Sur 22 Sudoeste 0 -- -- 78
2021-02-12 12:00:00 11.2 4 Sur 10 Sur 0 -- -- 81
2021-02-12 11:00:00 8.7 3 Sur 11 Sur 0 -- -- 91
2021-02-12 10:00:00 6.7 0 Calma 3 Norte 0 -- -- 98
2021-02-12 09:00:00 4.5 0 Calma 3 Sur 0 -- -- 99
2021-02-12 08:00:00 3.9 0 Calma 5 Noroeste 0 -- -- 100
2021-02-12 07:00:00 2.2 4 Noroeste 5 Noroeste 0 -- -- 98
2021-02-12 06:00:00 2.6 0 Calma 5 Noroeste 0 -- -- 98
2021-02-12 05:00:00 2.5 3 Norte 4 Noroeste 0 -- -- 96
2021-02-12 04:00:00 3.3 0 Calma 5 Noroeste 0 -- -- 97
2021-02-12 03:00:00 3.3 4 Noroeste 5 Noroeste 0 -- -- 95
2021-02-12 02:00:00 3.2 3 Norte 6 Noroeste 0 -- -- 97
2021-02-12 01:00:00 3.6 3 Noroeste 5 Noroeste 0 -- -- 95
2021-02-12 00:00:00 3.9 3 Noroeste 5 Norte 0 -- -- 94
2021-02-11 23:00:00 4.6 0 Calma 6 Norte 0 -- -- 93
2021-02-11 22:00:00 4.7 3 Norte 5 Noroeste 0 -- -- 92
2021-02-11 21:00:00 5.3 0 Calma 2 Nordeste 0 -- -- 91
2021-02-11 20:00:00 5.8 0 Calma 5 Noroeste 0 -- -- 89
2021-02-11 19:00:00 8.3 0 Calma 5 Sudoeste 0 -- -- 76
2021-02-11 18:00:00 11.5 3 Sur 11 Sudoeste 0 -- -- 64
2021-02-11 17:00:00 12.3 2 Sur 14 Sudoeste 0 -- -- 59
2021-02-11 16:00:00 13.2 6 Sudoeste 19 Sudoeste 0 -- -- 55
2021-02-11 15:00:00 12.3 4 Sudoeste 13 Sudoeste 0 -- -- 55
2021-02-11 14:00:00 10.8 3 Sur 15 Oeste 0 -- -- 59
2021-02-11 13:00:00 9.1 6 Sudoeste 15 Sur 0 -- -- 75
2021-02-11 12:00:00 7.9 2 Sur 8 Este 0 -- -- 76
2021-02-11 11:00:00 6.8 2 Este 8 Nordeste 0 -- -- 79
2021-02-11 10:00:00 5.5 3 Nordeste 7 Nordeste 0 -- -- 87
2021-02-11 09:00:00 1.1 0 Calma 4 Norte 0 -- -- 100
2021-02-11 08:00:00 -1.7 2 Noroeste 4 Noroeste 0 -- -- 99
2021-02-11 07:00:00 -1 2 Norte 3 Noroeste 0 -- -- 99
2021-02-11 06:00:00 -1.1 3 Noroeste 4 Norte 0 -- -- 100
2021-02-11 05:00:00 -0.8 3 Noroeste 4 Noroeste 0 -- -- 99
2021-02-11 04:00:00 0.1 0 Calma 5 Norte 0 -- -- 100
2021-02-11 03:00:00 -0.2 0 Calma 4 Norte 0 -- -- 98
2021-02-11 02:00:00 -0.1 3 Noroeste 5 Noroeste 0 -- -- 98
2021-02-11 01:00:00 0.5 2 Noroeste 4 Norte 0 -- -- 96
2021-02-11 00:00:00 0.9 3 Noroeste 7 Noroeste 0 -- -- 96
2021-02-10 23:00:00 2.3 2 Nordeste 5 Noroeste 0 -- -- 91
2021-02-10 22:00:00 5.2 0 Calma 15 Oeste 0 -- -- 85
2021-02-10 21:00:00 6.3 2 Sudoeste 13 Oeste 0 -- -- 81
2021-02-10 20:00:00 6.8 7 Oeste 26 Sudoeste 0 -- -- 82
2021-02-10 19:00:00 7.8 16 Oeste 29 Oeste 0 -- -- 78
2021-02-10 18:00:00 9.5 13 Sudoeste 28 Oeste 0 -- -- 69
2021-02-10 17:00:00 10.1 15 Sudoeste 25 Sudoeste 0 -- -- 70
2021-02-10 16:00:00 10.3 12 Sudoeste 24 Sur 0 -- -- 71
2021-02-10 15:00:00 10.8 10 Sudoeste 23 Sudoeste 0 -- -- 67
2021-02-10 14:00:00 9.6 7 Sudoeste 16 Sur 0 -- -- 75
2021-02-10 13:00:00 7.4 5 Sudoeste 15 Sudoeste 0 -- -- 80
2021-02-10 12:00:00 5.9 0 Calma 6 Oeste 0 -- -- 89
2021-02-10 11:00:00 5 0 Calma 10 Nordeste 0 -- -- 93
2021-02-10 10:00:00 4.1 2 Sudoeste 5 Oeste 0 -- -- 99
2021-02-10 09:00:00 3.5 0 Calma 8 Sudoeste 0 -- -- 99
2021-02-10 08:00:00 3.3 4 Sur 14 Sudoeste 0 -- -- 98
2021-02-10 07:00:00 3.5 3 Sudoeste 19 Sur 0 -- -- 97
2021-02-10 06:00:00 4 12 Sudoeste 23 Sudoeste 0 -- -- 99
2021-02-10 05:00:00 4.3 7 Sur 15 Sur 0 -- -- 99
2021-02-10 04:00:00 4.6 4 Sur 16 Sur 0 -- -- 99
2021-02-10 03:00:00 4.2 3 Sudoeste 14 Sudoeste 0 -- -- 98
2021-02-10 02:00:00 5.2 4 Sur 15 Sudoeste 0 -- -- 98
2021-02-10 01:00:00 5.6 10 Sur 31 Sudoeste 0 -- -- 95
2021-02-10 00:00:00 6.3 18 Sudoeste 34 Sur 0 -- -- 96
2021-02-09 23:00:00 6.1 8 Sur 17 Sur 0 -- -- 100
2021-02-09 22:00:00 6.1 7 Oeste 10 Oeste 1.4 -- -- 99
2021-02-09 21:00:00 5.9 2 Sudoeste 9 Noroeste 0 -- -- 98
2021-02-09 20:00:00 6.1 6 Noroeste 16 Oeste 0.4 -- -- 95
2021-02-09 19:00:00 6.3 13 Oeste 22 Oeste 0 -- -- 93
2021-02-09 18:00:00 6.4 4 Sur 21 Oeste 0 -- -- 94
2021-02-09 17:00:00 6.6 11 Oeste 22 Oeste 0 -- -- 89
2021-02-09 16:00:00 6.3 15 Oeste 25 Oeste 0.2 -- -- 95
2021-02-09 15:00:00 6.9 16 Oeste 32 Oeste 0.2 -- -- 94
2021-02-09 14:00:00 7.2 18 Oeste 40 Sudoeste 0 -- -- 88
2021-02-09 13:00:00 7.4 15 Sudoeste 29 Sudoeste 0 -- -- 84
2021-02-09 12:00:00 6.1 14 Sudoeste 29 Sudoeste 0.4 -- -- 93
2021-02-09 11:00:00 -- -- -- -- -- -- -- -- --
2021-02-09 10:00:00 3 4 Sur 6 Sur 0 -- -- 100
2021-02-09 09:00:00 2.1 3 Sur 6 Nordeste 0 -- -- 100
2021-02-09 08:00:00 1.8 0 Calma 5 Noroeste 0 -- -- 100
2021-02-09 07:00:00 2.5 2 Noroeste 4 Noroeste 0 -- -- 100
2021-02-09 06:00:00 2.5 2 Nordeste 8 Este 0 -- -- 100
2021-02-09 05:00:00 2 0 Calma 5 Noroeste 0 -- -- 100
2021-02-09 04:00:00 0.8 0 Calma 5 Norte 0 -- -- 100
2021-02-09 03:00:00 1.4 3 Noroeste 7 Noroeste 0 -- -- 100
2021-02-09 02:00:00 1.5 0 Calma 5 Noroeste 0 -- -- 100
2021-02-09 01:00:00 2.1 2 Norte 5 Noroeste 0 -- -- 100
2021-02-09 00:00:00 2.3 3 Noroeste 7 Noroeste 0 -- -- 100
2021-02-08 23:00:00 3.7 2 Nordeste 4 Noroeste 0 -- -- 100
2021-02-08 22:00:00 4.2 2 Este 4 Este 0 -- -- 100
2021-02-08 21:00:00 4.3 0 Calma 6 Sur 0 -- -- 99
2021-02-08 20:00:00 4.3 0 Calma 8 Sur 0 -- -- 96
2021-02-08 19:00:00 5.7 5 Sur 12 Sur 0 -- -- 93
2021-02-08 18:00:00 7.6 4 Sur 19 Sudoeste 0 -- -- 87
2021-02-08 17:00:00 6.7 14 Sudoeste 23 Sudoeste 0 -- -- 89
2021-02-08 16:00:00 6.9 15 Sudoeste 30 Sudoeste 0 -- -- 92
2021-02-08 15:00:00 5.1 14 Sudoeste 29 Oeste 0 -- -- 97
2021-02-08 14:00:00 5.4 13 Sudoeste 28 Sudoeste 0 -- -- 96
2021-02-08 13:00:00 6.7 18 Sudoeste 28 Sudoeste 0 -- -- 90
2021-02-08 12:00:00 6.9 10 Sudoeste 24 Sudoeste 0 -- -- 86
2021-02-08 11:00:00 5.2 6 Sur 16 Sur 0 -- -- 90
2021-02-08 10:00:00 2.2 2 Sur 8 Sur 0 -- -- 100
2021-02-08 09:00:00 -0.2 0 Calma 4 Norte 0 -- -- 99
2021-02-08 08:00:00 -0.8 0 Calma 6 Noroeste 0 -- -- 98
2021-02-08 07:00:00 -0.7 3 Norte 5 Noroeste 0 -- -- 98
2021-02-08 06:00:00 0.4 0 Calma 7 Sudoeste 0 -- -- 97
2021-02-08 05:00:00 0.5 2 Sur 6 Sudeste 0 -- -- 99
2021-02-08 04:00:00 0.4 0 Calma 8 Sur 0 -- -- 96
2021-02-08 03:00:00 1.5 0 Calma 8 Sur 0 -- -- 96
2021-02-08 02:00:00 2 5 Sur 10 Sudoeste 0 -- -- 95
2021-02-08 01:00:00 2.1 5 Sudoeste 10 Sur 0 -- -- 95
2021-02-08 00:00:00 2.6 4 Sudoeste 9 Oeste 0 -- -- 93
2021-02-07 23:00:00 3 3 Sur 7 Sur 0 -- -- 95
2021-02-07 22:00:00 3.5 2 Sur 6 Sur 0 -- -- 94
2021-02-07 21:00:00 4.3 2 Sur 6 Sur 0 -- -- 96
2021-02-07 20:00:00 4.3 0 Calma 3 Sur 0 -- -- 95
2021-02-07 19:00:00 4.2 0 Calma 6 Este 0 -- -- 96
2021-02-07 18:00:00 4.2 3 Este 9 Este 0 -- -- 96
2021-02-07 17:00:00 4.4 4 Este 8 Este 0 -- -- 96
2021-02-07 16:00:00 4.2 2 Sur 9 Sur 0 -- -- 97
2021-02-07 15:00:00 3.8 5 Sur 15 Oeste 0 -- -- 100
2021-02-07 14:00:00 3.4 8 Sudoeste 14 Sur 0 -- -- 100
2021-02-07 13:00:00 3.6 5 Sur 12 Oeste 0 -- -- 100
2021-02-07 12:00:00 3.7 8 Oeste 12 Oeste 0 -- -- 100
2021-02-07 11:00:00 3.5 7 Sudoeste 10 Sur 0 -- -- 100
2021-02-07 10:00:00 3.8 6 Sur 12 Sur 0 -- -- 100
2021-02-07 09:00:00 4.1 3 Sur 11 Sur 0 -- -- 100
2021-02-07 08:00:00 4.3 4 Sur 13 Sudoeste 0 -- -- 100
2021-02-07 07:00:00 4.4 7 Sudoeste 14 Sudoeste 0 -- -- 100
2021-02-07 06:00:00 4.8 6 Sur 14 Sudoeste 0 -- -- 99
2021-02-07 05:00:00 5.8 5 Sur 13 Sudoeste 0 -- -- 98
2021-02-07 04:00:00 6 4 Sur 11 Sudoeste 0 -- -- 98
2021-02-07 03:00:00 6 7 Sudoeste 16 Sur 0 -- -- 97
2021-02-07 02:00:00 6.4 6 Sudoeste 12 Sudoeste 0 -- -- 96
2021-02-07 01:00:00 6.2 5 Sudoeste 9 Sudoeste 0 -- -- 94
2021-02-07 00:00:00 6.3 2 Sudeste 12 Sudoeste 0 -- -- 92
2021-02-06 23:00:00 6.7 3 Sudoeste 10 Sudoeste 0 -- -- 87
2021-02-06 22:00:00 7.2 3 Sudoeste 14 Sudoeste 0 -- -- 85
2021-02-06 21:00:00 8.2 7 Oeste 16 Oeste 0 -- -- 83
2021-02-06 20:00:00 9.3 10 Oeste 15 Oeste 0 -- -- 80
2021-02-06 19:00:00 9.8 4 Sudoeste 12 Sudoeste 0 -- -- 77
2021-02-06 18:00:00 11.3 8 Sudoeste 16 Sudoeste 0 -- -- 73
2021-02-06 17:00:00 12.5 10 Sudoeste 19 Oeste 0 -- -- 72
2021-02-06 16:00:00 13.5 13 Sudoeste 23 Sudoeste 0 -- -- 69
2021-02-06 15:00:00 13.5 11 Sudoeste 19 Sudoeste 0 -- -- 73
2021-02-06 14:00:00 13.3 6 Sur 20 Sur 0 -- -- 77
2021-02-06 13:00:00 12.7 10 Sudoeste 22 Sur 0 -- -- 78
2021-02-06 12:00:00 13.6 9 Sudoeste 23 Sudoeste 0 -- -- 69
2021-02-06 11:00:00 13.3 5 Sur 14 Sur 0 -- -- 68
2021-02-06 10:00:00 12.6 2 Sudeste 13 Este 0 -- -- 59
2021-02-06 09:00:00 12.2 4 Nordeste 14 Nordeste 0 -- -- 58
2021-02-06 08:00:00 12.8 8 Este 15 Este 0 -- -- 55
2021-02-06 07:00:00 13.3 5 Nordeste 17 Nordeste 0 -- -- 51
2021-02-06 06:00:00 13.7 6 Nordeste 20 Este 0 -- -- 48
2021-02-06 05:00:00 13.9 10 Nordeste 22 Nordeste 0 -- -- 45
2021-02-06 04:00:00 13.5 12 Nordeste 21 Nordeste 0 -- -- 45
2021-02-06 03:00:00 13 10 Nordeste 24 Nordeste 0 -- -- 47
2021-02-06 02:00:00 12.6 6 Nordeste 13 Norte 0 -- -- 48
2021-02-06 01:00:00 13 6 Nordeste 15 Nordeste 0 -- -- 46
2021-02-06 00:00:00 12.8 9 Nordeste 16 Nordeste 0 -- -- 47
2021-02-05 23:00:00 10.7 5 Norte 9 Norte 0 -- -- 59
2021-02-05 22:00:00 12.1 3 Nordeste 12 Nordeste 0 -- -- 58
2021-02-05 21:00:00 12.1 5 Nordeste 11 Nordeste 0 -- -- 60
2021-02-05 20:00:00 9.2 3 Norte 6 Norte 0 -- -- 73
2021-02-05 19:00:00 10.7 4 Norte 5 Norte 0 -- -- 71
2021-02-05 18:00:00 14.3 4 Este 9 Este 0 -- -- 57
2021-02-05 17:00:00 15.7 4 Este 11 Nordeste 0 -- -- 51
2021-02-05 16:00:00 16.4 4 Este 12 Este 0 -- -- 49
2021-02-05 15:00:00 16.5 3 Sudeste 15 Nordeste 0 -- -- 50
2021-02-05 14:00:00 16.4 6 Este 19 Este 0 -- -- 48
2021-02-05 13:00:00 16.3 9 Este 18 Este 0 -- -- 53
2021-02-05 12:00:00 14.4 3 Nordeste 9 Este 0 -- -- 60
2021-02-05 11:00:00 14.1 2 Este 11 Norte 0 -- -- 57
2021-02-05 10:00:00 11.1 6 Norte 14 Norte 0 -- -- 68
2021-02-05 09:00:00 7.6 2 Norte 8 Noroeste 0 -- -- 89
2021-02-05 08:00:00 8.2 3 Norte 13 Nordeste 0 -- -- 84
2021-02-05 07:00:00 6.7 0 Calma 10 Sudoeste 0 -- -- 93
2021-02-05 06:00:00 7 0 Calma 5 Sur 0 -- -- 89
2021-02-05 05:00:00 8.6 4 Norte 11 Nordeste 0 -- -- 88
2021-02-05 04:00:00 5.5 5 Norte 6 Norte 0 -- -- 99
2021-02-05 03:00:00 4.9 5 Noroeste 8 Noroeste 0 -- -- 99
2021-02-05 02:00:00 4.6 3 Norte 8 Norte 0 -- -- 96
2021-02-05 01:00:00 6.5 0 Calma 5 Oeste 0 -- -- 97
2021-02-05 00:00:00 6.6 3 Noroeste 6 Norte 0 -- -- 97
2021-02-04 23:00:00 7.2 2 Norte 7 Oeste 0 -- -- 92
2021-02-04 22:00:00 9.3 4 Noroeste 10 Oeste 0 -- -- 85
2021-02-04 21:00:00 8.9 4 Oeste 8 Oeste 0 -- -- 90
2021-02-04 20:00:00 9.1 2 Norte 6 Noroeste 0 -- -- 84
2021-02-04 19:00:00 11.5 2 Noroeste 9 Sur 0 -- -- 78
2021-02-04 18:00:00 13.4 3 Sudoeste 7 Sur 0 -- -- 69
2021-02-04 17:00:00 15.9 2 Sur 6 Sur 0 -- -- 57
2021-02-04 16:00:00 16.9 4 Sur 9 Este 0 -- -- 51
2021-02-04 15:00:00 16.3 2 Sudeste 11 Sur 0 -- -- 53
2021-02-04 14:00:00 16.1 4 Sudeste 9 Este 0 -- -- 58
2021-02-04 13:00:00 14.3 6 Sur 12 Sur 0 -- -- 66
2021-02-04 12:00:00 13.1 2 Este 12 Sur 0 -- -- 72
2021-02-04 11:00:00 12.3 5 Sudoeste 9 Sudoeste 0 -- -- 74
2021-02-04 10:00:00 10.2 0 Calma 4 Sudeste 0 -- -- 88
2021-02-04 09:00:00 4.6 5 Noroeste 8 Noroeste 0 -- -- 100
2021-02-04 08:00:00 3.9 5 Noroeste 7 Noroeste 0 -- -- 99
2021-02-04 07:00:00 3.8 4 Noroeste 6 Norte 0 -- -- 99
2021-02-04 06:00:00 4 5 Noroeste 7 Norte 0 -- -- 98
2021-02-04 05:00:00 3.9 4 Noroeste 8 Noroeste 0 -- -- 97
2021-02-04 04:00:00 4.1 3 Noroeste 7 Noroeste 0 -- -- 97
2021-02-04 03:00:00 4.2 5 Noroeste 6 Noroeste 0 -- -- 96
2021-02-04 02:00:00 5.4 5 Noroeste 6 Norte 0 -- -- 94
2021-02-04 01:00:00 6.3 5 Noroeste 6 Noroeste 0 -- -- 94
2021-02-04 00:00:00 7.1 4 Noroeste 6 Noroeste 0 -- -- 92
2021-02-03 23:00:00 8 2 Norte 8 Nordeste 0 -- -- 90
2021-02-03 22:00:00 7.2 4 Noroeste 6 Noroeste 0 -- -- 92
2021-02-03 21:00:00 7.7 0 Calma 5 Norte 0 -- -- 89
2021-02-03 20:00:00 8.6 0 Calma 4 Sur 0 -- -- 85
2021-02-03 19:00:00 9.5 0 Calma 4 Sudoeste 0 -- -- 81
2021-02-03 18:00:00 12.7 2 Sur 9 Este 0 -- -- 71
2021-02-03 17:00:00 14.3 5 Sur 24 Sudoeste 0 -- -- 66
2021-02-03 16:00:00 15.9 10 Sur 27 Sudoeste 0 -- -- 61
2021-02-03 15:00:00 17.5 12 Sur 28 Sudoeste 0 -- -- 57
2021-02-03 14:00:00 16.6 5 Sur 19 Sur 0 -- -- 60
2021-02-03 13:00:00 13 4 Sudoeste 13 Sudoeste 0 -- -- 71
2021-02-03 12:00:00 10.8 4 Sur 9 Sudoeste 0 -- -- 80
2021-02-03 11:00:00 8.5 2 Sur 10 Sur 0 -- -- 91
2021-02-03 10:00:00 7.2 3 Sur 7 Sudoeste 0 -- -- 100
2021-02-03 09:00:00 1.9 4 Noroeste 6 Norte 0 -- -- 100
2021-02-03 08:00:00 1 4 Noroeste 7 Noroeste 0 -- -- 100
2021-02-03 07:00:00 1.5 4 Noroeste 6 Noroeste 0 -- -- 100
2021-02-03 06:00:00 1.8 3 Norte 8 Oeste 0 -- -- 100
2021-02-03 05:00:00 2.1 4 Noroeste 9 Norte 0 -- -- 100
2021-02-03 04:00:00 2.7 2 Noroeste 6 Noroeste 0 -- -- 99
2021-02-03 03:00:00 4.3 2 Sur 6 Sudoeste 0 -- -- 100
2021-02-03 02:00:00 3.9 2 Norte 5 Noroeste 0 -- -- 99
2021-02-03 01:00:00 4.1 0 Calma 4 Norte 0 -- -- 96
2021-02-03 00:00:00 4.9 0 Calma 4 Noroeste 0 -- -- 96
2021-02-02 23:00:00 5.7 0 Calma 8 Oeste 0 -- -- 93
2021-02-02 22:00:00 6.9 2 Noroeste 6 Sudoeste 0 -- -- 88
2021-02-02 21:00:00 9.7 3 Sur 12 Sudoeste 0 -- -- 84
2021-02-02 20:00:00 10.5 8 Sudoeste 13 Sudoeste 0 -- -- 83
2021-02-02 19:00:00 10.5 3 Sudoeste 8 Sudoeste 0 -- -- 84
2021-02-02 18:00:00 13.3 5 Sur 15 Sudoeste 0 -- -- 74
2021-02-02 17:00:00 14.7 8 Sur 17 Sudoeste 0 -- -- 66
2021-02-02 16:00:00 15 8 Sur 18 Sur 0 -- -- 65
2021-02-02 15:00:00 15.7 6 Sur 17 Sur 0 -- -- 65
2021-02-02 14:00:00 14.1 10 Sudoeste 18 Oeste 0 -- -- 68
2021-02-02 13:00:00 12.5 9 Sudoeste 16 Sudoeste 0 -- -- 73
2021-02-02 12:00:00 11 3 Sur 12 Oeste 0 -- -- 79
2021-02-02 11:00:00 9.3 4 Sur 9 Sudoeste 0 -- -- 80
2021-02-02 10:00:00 7.8 3 Sur 6 Sur 0 -- -- 88
2021-02-02 09:00:00 3.4 0 Calma 6 Oeste 0 -- -- 99
2021-02-02 08:00:00 3 3 Oeste 9 Noroeste 0 -- -- 97
2021-02-02 07:00:00 4.1 3 Norte 9 Oeste 0 -- -- 95
2021-02-02 06:00:00 3.9 2 Sudoeste 6 Noroeste 0 -- -- 98
2021-02-02 05:00:00 3.2 5 Noroeste 7 Noroeste 0 -- -- 97
2021-02-02 04:00:00 3.1 3 Norte 8 Noroeste 0 -- -- 96
2021-02-02 03:00:00 3.1 2 Noroeste 8 Noroeste 0 -- -- 97
2021-02-02 02:00:00 3.7 3 Norte 7 Noroeste 0 -- -- 97
2021-02-02 01:00:00 4.7 2 Norte 6 Norte 0 -- -- 94
2021-02-02 00:00:00 4.6 3 Nordeste 6 Nordeste 0 -- -- 96
2021-02-01 23:00:00 4.6 2 Norte 10 Noroeste 0 -- -- 93
2021-02-01 22:00:00 6.3 3 Oeste 6 Sudeste 0 -- -- 87
2021-02-01 21:00:00 9 3 Noroeste 22 Oeste 0 -- -- 77
2021-02-01 20:00:00 10.8 12 Sudoeste 22 Sudoeste 0 -- -- 71
2021-02-01 19:00:00 11.2 13 Oeste 36 Oeste 0 -- -- 70
2021-02-01 18:00:00 12.3 14 Oeste 28 Oeste 0 -- -- 64
2021-02-01 17:00:00 14.5 18 Oeste 34 Sudoeste 0 -- -- 56
2021-02-01 16:00:00 15.3 18 Sudoeste 35 Oeste 0 -- -- 54
2021-02-01 15:00:00 15.2 18 Sudoeste 28 Sudoeste 0 -- -- 52
2021-02-01 14:00:00 14.1 15 Sudoeste 31 Oeste 0 -- -- 60
2021-02-01 13:00:00 11.6 5 Sur 14 Sudoeste 0 -- -- 76
2021-02-01 12:00:00 9.2 5 Sudoeste 13 Sur 0 -- -- 86
2021-02-01 11:00:00 7.7 4 Este 10 Este 0 -- -- 93
2021-02-01 10:00:00 6.7 0 Calma 5 Este 0 -- -- 100
2021-02-01 09:00:00 3 2 Noroeste 7 Noroeste 0 -- -- 100
2021-02-01 08:00:00 2.4 2 Norte 7 Noroeste 0 -- -- 100
2021-02-01 07:00:00 3.4 4 Norte 9 Oeste 0 -- -- 100
2021-02-01 06:00:00 4.6 3 Noroeste 10 Norte 0 -- -- 100
2021-02-01 05:00:00 3.5 2 Norte 6 Norte 0 -- -- 100
2021-02-01 04:00:00 4 3 Este 6 Este 0 -- -- 100
2021-02-01 03:00:00 3.5 0 Calma 10 Sudoeste 0 -- -- 97
2021-02-01 02:00:00 5.6 2 Norte 15 Sur 0 -- -- 94
2021-02-01 01:00:00 6.8 8 Sur 18 Sudoeste 0 -- -- 95
2021-02-01 00:00:00 5 7 Oeste 15 Oeste 0 -- -- 100
2021-01-31 23:00:00 2.8 4 Norte 9 Norte 0 -- -- 96
2021-01-31 22:00:00 3.9 2 Noroeste 6 Norte 0 -- -- 94
2021-01-31 21:00:00 5.9 2 Sur 6 Sudoeste 0 -- -- 92
2021-01-31 20:00:00 6.9 0 Calma 11 Sur 0 -- -- 84
2021-01-31 19:00:00 9.1 3 Sur 14 Sur 0 -- -- 77
2021-01-31 18:00:00 11.4 8 Sudoeste 21 Sudoeste 0 -- -- 68
2021-01-31 17:00:00 12.5 10 Sur 29 Sudoeste 0 -- -- 64
2021-01-31 16:00:00 12.8 19 Oeste 34 Oeste 0 -- -- 61
2021-01-31 15:00:00 12.9 15 Sudoeste 25 Sudoeste 0 -- -- 60
2021-01-31 14:00:00 11.4 17 Sudoeste 31 Sudoeste 0 -- -- 64
2021-01-31 13:00:00 9.3 12 Sudoeste 25 Sudoeste 0 -- -- 74
2021-01-31 12:00:00 7.3 15 Sudoeste 22 Sudoeste 0 -- -- 78
2021-01-31 11:00:00 5.4 3 Sur 11 Sur 0 -- -- 87
2021-01-31 10:00:00 4.6 3 Sur 10 Este 0 -- -- 91
2021-01-31 09:00:00 0.7 0 Calma 8 Norte 0 -- -- 99
2021-01-31 08:00:00 -0.8 0 Calma 4 Noroeste 0 -- -- 98
2021-01-31 07:00:00 -0.3 0 Calma 6 Norte 0 -- -- 98
2021-01-31 06:00:00 0 2 Norte 6 Noroeste 0 -- -- 96
2021-01-31 05:00:00 1.2 0 Calma 7 Noroeste 0 -- -- 94
2021-01-31 04:00:00 1.5 3 Noroeste 5 Noroeste 0 -- -- 95
2021-01-31 03:00:00 2.2 2 Nordeste 6 Este 0 -- -- 93
2021-01-31 02:00:00 2.7 2 Sudeste 9 Sur 0 -- -- 93
2021-01-31 01:00:00 2.7 2 Sudeste 5 Sur 0 -- -- 93
2021-01-31 00:00:00 4.1 0 Calma 16 Oeste 0 -- -- 86